Seacliff, California
Current Conditions -  °F | °C
As of 8:53 PM on Wednesday 26 Nov 2014 (Local Time) from KWVI Reporting Station
Clear Clear  
Wind Chill: 56°   Ceiling: Unl
Heat Index: 56°   Visibility: 10mi
Dew Point: 43°   Wind: 5mph
Humidity: 62%   Direction: 310°NW
Pressure: 30.21"   Gusts: NA
Location:  37.0137°N, 121.877°W
Report Text: KWVI 270453Z AUTO 31004KT 10SM CLR 13/06 A3021 RMK AO2 SLP229 T01330061
Loading
Personal Weather Stations






























Interactive Weather Map New forecast layout! Learn more

10-Day Weather Forecast

Advertisements
Track Severe Weather on mobile